Time,TemperatureF,DewpointF,PressureIn,WindDirection,WindDirectionDegrees,WindSpeedMPH,WindSpeedGustMPH,Humidity,HourlyPrecipIn,Conditions,Clouds,dailyrainin,SoftwareType,DateUTC
2013-04-17 00:03:00,56.5,36.5,30.04,NW,318,3.6,4.9,47,0.00,,,0.00,WUHU216WMR968SP,2013-04-17 07:03:00,
2013-04-17 00:08:00,56.5,36.5,30.04,NW,308,2.7,4.9,47,0.00,,,0.00,WUHU216WMR968SP,2013-04-17 07:08:00,
2013-04-17 00:13:00,56.3,36.3,30.04,NW,312,3.6,4.0,47,0.00,,,0.00,WUHU216WMR968SP,2013-04-17 07:13:00,
2013-04-17 00:18:00,56.1,36.1,30.04,NW,313,3.6,4.9,47,0.00,,,0.00,WUHU216WMR968SP,2013-04-17 07:18:00,
2013-04-17 00:23:00,56.1,36.1,30.04,NW,312,3.1,5.4,47,0.00,,,0.00,WUHU216WMR968SP,2013-04-17 07:23:00,
2013-04-17 00:28:00,56.1,36.1,30.04,NW,313,3.6,5.4,47,0.00,,,0.00,WUHU216WMR968SP,2013-04-17 07:28:00,
2013-04-17 00:33:00,55.8,35.8,30.04,WNW,301,3.1,4.0,47,0.00,,,0.00,WUHU216WMR968SP,2013-04-17 07:33:00,
2013-04-17 00:38:00,55.8,35.8,30.04,NW,315,2.7,4.0,47,0.00,,,0.00,WUHU216WMR968SP,2013-04-17 07:38:00,
2013-04-17 00:43:00,55.6,35.6,30.04,NW,308,2.2,4.0,47,0.00,,,0.00,WUHU216WMR968SP,2013-04-17 07:43:00,
2013-04-17 00:48:00,55.6,35.6,30.04,NW,304,2.7,4.0,47,0.00,,,0.00,WUHU216WMR968SP,2013-04-17 07:48:00,
2013-04-17 00:53:00,55.6,35.6,30.04,NW,305,2.7,4.0,47,0.00,,,0.00,WUHU216WMR968SP,2013-04-17 07:53:00,
2013-04-17 00:58:00,55.6,35.6,30.04,NW,308,3.1,4.9,47,0.00,,,0.00,WUHU216WMR968SP,2013-04-17 07:58:00,
2013-04-17 01:03:00,55.6,35.6,30.04,NW,317,2.7,4.9,47,0.00,,,0.00,WUHU216WMR968SP,2013-04-17 08:03:00,
2013-04-17 01:08:00,55.4,35.4,30.04,NW,310,3.1,4.0,47,0.00,,,0.00,WUHU216WMR968SP,2013-04-17 08:08:00,
2013-04-17 01:13:00,55.4,35.4,30.04,NW,317,3.1,4.0,47,0.00,,,0.00,WUHU216WMR968SP,2013-04-17 08:13:00,
2013-04-17 01:18:00,55.4,35.4,30.04,NW,322,3.1,4.9,47,0.00,,,0.00,WUHU216WMR968SP,2013-04-17 08:18:00,
2013-04-17 01:23:00,55.6,35.6,30.04,NW,323,2.7,4.9,47,0.00,,,0.00,WUHU216WMR968SP,2013-04-17 08:23:00,
2013-04-17 01:28:00,55.8,35.8,30.04,NW,321,3.1,4.0,47,0.00,,,0.00,WUHU216WMR968SP,2013-04-17 08:28:00,
2013-04-17 01:33:00,55.9,35.9,30.04,NNW,327,2.7,4.0,47,0.00,,,0.00,WUHU216WMR968SP,2013-04-17 08:33:00,
2013-04-17 01:38:00,55.9,35.9,30.04,NW,318,2.2,4.0,47,0.00,,,0.00,WUHU216WMR968SP,2013-04-17 08:38:00,
2013-04-17 01:43:00,55.9,35.9,30.04,NW,318,2.7,4.9,47,0.00,,,0.00,WUHU216WMR968SP,2013-04-17 08:43:00,
2013-04-17 01:48:00,55.9,35.9,30.04,NW,318,2.7,4.9,47,0.00,,,0.00,WUHU216WMR968SP,2013-04-17 08:48:00,
2013-04-17 01:53:00,55.8,35.8,30.04,NW,317,2.7,3.6,47,0.00,,,0.00,WUHU216WMR968SP,2013-04-17 08:53:00,
2013-04-17 01:58:00,55.4,35.4,30.04,NW,317,2.7,3.6,47,0.00,,,0.00,WUHU216WMR968SP,2013-04-17 08:58:00,
2013-04-17 02:03:00,55.2,35.8,30.04,NW,317,2.7,3.6,48,0.00,,,0.00,WUHU216WMR968SP,2013-04-17 09:03:00,
2013-04-17 02:08:00,54.9,35.5,30.04,NW,317,2.7,3.6,48,0.00,,,0.00,WUHU216WMR968SP,2013-04-17 09:08:00,
2013-04-17 02:13:00,54.5,35.2,30.04,NW,312,2.7,3.6,48,0.00,,,0.00,WUHU216WMR968SP,2013-04-17 09:13:00,
2013-04-17 02:18:00,54.3,35.0,30.04,NW,322,2.7,4.0,48,0.00,,,0.00,WUHU216WMR968SP,2013-04-17 09:18:00,
2013-04-17 02:23:00,54.3,35.0,30.04,NW,319,2.7,4.0,48,0.00,,,0.00,WUHU216WMR968SP,2013-04-17 09:23:00,
2013-04-17 02:28:00,54.5,35.2,30.04,NW,325,3.1,4.9,48,0.00,,,0.00,WUHU216WMR968SP,2013-04-17 09:28:00,
2013-04-17 02:33:00,54.7,35.3,30.04,NW,317,2.7,4.9,48,0.00,,,0.00,WUHU216WMR968SP,2013-04-17 09:33:00,
2013-04-17 02:38:00,54.7,35.3,30.04,NW,315,3.6,4.0,48,0.00,,,0.00,WUHU216WMR968SP,2013-04-17 09:38:00,
2013-04-17 02:43:00,54.9,35.5,30.04,NNW,333,2.2,4.0,48,0.00,,,0.00,WUHU216WMR968SP,2013-04-17 09:43:00,
2013-04-17 02:48:00,54.9,35.5,30.04,NW,326,3.6,4.0,48,0.00,,,0.00,WUHU216WMR968SP,2013-04-17 09:48:00,
2013-04-17 02:53:00,54.9,35.5,30.04,NNW,330,3.1,4.9,48,0.00,,,0.00,WUHU216WMR968SP,2013-04-17 09:53:00,
2013-04-17 02:58:00,54.9,35.5,30.04,NNW,335,3.1,4.9,48,0.00,,,0.00,WUHU216WMR968SP,2013-04-17 09:58:00,
2013-04-17 03:03:00,54.7,35.3,30.04,NW,326,4.0,4.9,48,0.00,,,0.00,WUHU216WMR968SP,2013-04-17 10:03:00,
2013-04-17 03:08:00,54.9,35.5,30.07,NW,309,4.0,5.4,48,0.00,,,0.00,WUHU216WMR968SP,2013-04-17 10:08:00,
2013-04-17 03:13:00,54.9,35.5,30.07,NW,307,3.6,5.4,48,0.00,,,0.00,WUHU216WMR968SP,2013-04-17 10:13:00,
2013-04-17 03:18:00,54.9,35.5,30.07,NW,316,3.1,4.5,48,0.00,,,0.00,WUHU216WMR968SP,2013-04-17 10:18:00,
2013-04-17 03:23:00,54.9,35.5,30.07,NW,316,3.1,5.4,48,0.00,,,0.00,WUHU216WMR968SP,2013-04-17 10:23:00,
2013-04-17 03:28:00,54.7,35.3,30.07,NW,314,3.1,5.4,48,0.00,,,0.00,WUHU216WMR968SP,2013-04-17 10:28:00,
2013-04-17 03:33:00,54.5,35.2,30.07,NW,309,3.6,4.0,48,0.00,,,0.00,WUHU216WMR968SP,2013-04-17 10:33:00,
2013-04-17 03:38:00,54.3,35.0,30.07,NW,308,3.1,4.0,48,0.00,,,0.00,WUHU216WMR968SP,2013-04-17 10:38:00,
2013-04-17 03:43:00,54.1,34.8,30.07,NNW,329,0.0,4.0,48,0.00,,,0.00,WUHU216WMR968SP,2013-04-17 10:43:00,
2013-04-17 03:48:00,54.0,34.7,30.07,NNW,327,0.0,4.0,48,0.00,,,0.00,WUHU216WMR968SP,2013-04-17 10:48:00,
2013-04-17 03:53:00,54.0,34.7,30.07,NW,320,2.7,3.6,48,0.00,,,0.00,WUHU216WMR968SP,2013-04-17 10:53:00,
2013-04-17 03:58:00,53.8,34.5,30.07,NNW,327,0.0,3.6,48,0.00,,,0.00,WUHU216WMR968SP,2013-04-17 10:58:00,
2013-04-17 04:03:00,53.6,34.3,30.07,NW,320,0.0,3.6,48,0.00,,,0.00,WUHU216WMR968SP,2013-04-17 11:03:00,
2013-04-17 04:08:00,53.6,34.3,30.07,North,353,0.0,3.1,48,0.00,,,0.00,WUHU216WMR968SP,2013-04-17 11:08:00,
2013-04-17 04:13:00,53.4,34.1,30.07,North,357,0.0,3.1,48,0.00,,,0.00,WUHU216WMR968SP,2013-04-17 11:13:00,
2013-04-17 04:18:00,53.4,34.1,30.07,NNW,335,2.2,3.6,48,0.00,,,0.00,WUHU216WMR968SP,2013-04-17 11:18:00,
2013-04-17 04:23:00,53.6,34.3,30.07,North,353,0.0,3.6,48,0.00,,,0.00,WUHU216WMR968SP,2013-04-17 11:23:00,
2013-04-17 04:28:00,53.6,34.3,30.07,North,350,0.0,3.1,48,0.00,,,0.00,WUHU216WMR968SP,2013-04-17 11:28:00,
2013-04-17 04:33:00,53.6,34.3,30.07,North,350,0.0,0.0,48,0.00,,,0.00,WUHU216WMR968SP,2013-04-17 11:33:00,
2013-04-17 04:38:00,53.4,34.1,30.07,North,350,0.0,0.0,48,0.00,,,0.00,WUHU216WMR968SP,2013-04-17 11:38:00,
2013-04-17 04:43:00,53.4,34.1,30.07,NNW,345,0.0,0.0,48,0.00,,,0.00,WUHU216WMR968SP,2013-04-17 11:43:00,
2013-04-17 04:48:00,53.4,34.1,30.07,NNE,16,0.0,3.1,48,0.00,,,0.00,WUHU216WMR968SP,2013-04-17 11:48:00,
2013-04-17 04:53:00,53.4,34.1,30.07,NNE,20,4.0,5.8,48,0.00,,,0.00,WUHU216WMR968SP,2013-04-17 11:53:00,
2013-04-17 04:58:00,53.1,33.9,30.07,NNE,14,5.4,6.3,48,0.00,,,0.00,WUHU216WMR968SP,2013-04-17 11:58:00,
2013-04-17 05:03:00,53.1,33.9,30.07,North,0,2.7,6.3,48,0.00,,,0.00,WUHU216WMR968SP,2013-04-17 12:03:00,
2013-04-17 05:08:00,53.1,33.9,30.07,North,353,0.0,4.9,48,0.00,,,0.00,WUHU216WMR968SP,2013-04-17 12:08:00,
2013-04-17 05:13:00,52.7,33.5,30.07,North,0,0.0,3.6,48,0.00,,,0.00,WUHU216WMR968SP,2013-04-17 12:13:00,
2013-04-17 05:18:00,52.9,33.7,30.07,NNW,338,0.0,3.6,48,0.00,,,0.00,WUHU216WMR968SP,2013-04-17 12:18:00,
2013-04-17 05:23:00,52.9,33.7,30.10,North,357,0.0,3.1,48,0.00,,,0.00,WUHU216WMR968SP,2013-04-17 12:23:00,
2013-04-17 05:28:00,52.7,33.5,30.10,North,353,2.2,3.1,48,0.00,,,0.00,WUHU216WMR968SP,2013-04-17 12:28:00,
2013-04-17 05:33:00,52.7,33.5,30.10,South,179,0.0,3.1,48,0.00,,,0.00,WUHU216WMR968SP,2013-04-17 12:33:00,
2013-04-17 05:38:00,52.5,33.3,30.10,NNE,21,0.0,3.1,48,0.00,,,0.00,WUHU216WMR968SP,2013-04-17 12:38:00,
2013-04-17 05:43:00,52.5,33.3,30.10,North,353,0.0,3.6,48,0.00,,,0.00,WUHU216WMR968SP,2013-04-17 12:43:00,
2013-04-17 05:48:00,52.7,33.5,30.10,North,353,2.7,3.6,48,0.00,,,0.00,WUHU216WMR968SP,2013-04-17 12:48:00,
2013-04-17 05:53:00,53.1,33.9,30.10,North,0,0.0,3.6,48,0.00,,,0.00,WUHU216WMR968SP,2013-04-17 12:53:00,
2013-04-17 05:58:00,53.2,34.0,30.10,North,0,0.0,3.1,48,0.00,,,0.00,WUHU216WMR968SP,2013-04-17 12:58:00,
2013-04-17 06:03:00,53.6,34.3,30.10,North,357,0.0,3.1,48,0.00,,,0.00,WUHU216WMR968SP,2013-04-17 13:03:00,
2013-04-17 06:08:00,53.8,34.5,30.10,North,0,2.7,3.1,48,0.00,,,0.00,WUHU216WMR968SP,2013-04-17 13:08:00,
2013-04-17 06:13:00,54.0,34.7,30.10,NNW,346,2.2,3.6,48,0.00,,,0.00,WUHU216WMR968SP,2013-04-17 13:13:00,
2013-04-17 06:18:00,54.1,34.8,30.10,NNW,348,2.2,3.6,48,0.00,,,0.00,WUHU216WMR968SP,2013-04-17 13:18:00,
2013-04-17 06:23:00,54.1,34.8,30.10,NNW,343,2.2,3.6,48,0.00,,,0.00,WUHU216WMR968SP,2013-04-17 13:23:00,
2013-04-17 06:28:00,54.1,34.8,30.10,NNW,346,2.2,3.6,48,0.00,,,0.00,WUHU216WMR968SP,2013-04-17 13:28:00,
2013-04-17 06:33:00,54.1,34.8,30.10,North,10,0.0,3.1,48,0.00,,,0.00,WUHU216WMR968SP,2013-04-17 13:33:00,
2013-04-17 06:38:00,54.0,34.7,30.13,NNW,339,0.0,4.0,48,0.00,,,0.00,WUHU216WMR968SP,2013-04-17 13:38:00,
2013-04-17 06:43:00,54.0,34.7,30.13,North,0,0.0,4.0,48,0.00,,,0.00,WUHU216WMR968SP,2013-04-17 13:43:00,
2013-04-17 06:48:00,54.0,34.7,30.13,NNW,348,2.2,3.1,48,0.00,,,0.00,WUHU216WMR968SP,2013-04-17 13:48:00,
2013-04-17 06:53:00,54.1,34.8,30.13,North,0,2.2,3.6,48,0.00,,,0.00,WUHU216WMR968SP,2013-04-17 13:53:00,
2013-04-17 06:58:00,54.3,35.0,30.13,North,8,2.2,3.6,48,0.00,,,0.00,WUHU216WMR968SP,2013-04-17 13:58:00,
2013-04-17 07:03:00,54.3,35.0,30.13,NNW,346,2.7,4.9,48,0.00,,,0.00,WUHU216WMR968SP,2013-04-17 14:03:00,
2013-04-17 07:08:00,54.5,35.2,30.13,North,353,2.7,4.9,48,0.00,,,0.00,WUHU216WMR968SP,2013-04-17 14:08:00,
2013-04-17 07:13:00,54.9,35.5,30.13,NNW,346,2.2,4.0,48,0.00,,,0.00,WUHU216WMR968SP,2013-04-17 14:13:00,
2013-04-17 07:18:00,55.4,35.4,30.13,North,353,2.2,3.6,47,0.00,,,0.00,WUHU216WMR968SP,2013-04-17 14:18:00,
2013-04-17 07:23:00,55.8,35.8,30.13,North,8,2.2,3.6,47,0.00,,,0.00,WUHU216WMR968SP,2013-04-17 14:23:00,
2013-04-17 07:28:00,56.3,36.3,30.13,North,0,0.0,6.3,47,0.00,,,0.00,WUHU216WMR968SP,2013-04-17 14:28:00,
2013-04-17 07:33:00,56.7,36.6,30.13,NNE,24,2.2,6.3,47,0.00,,,0.00,WUHU216WMR968SP,2013-04-17 14:33:00,
2013-04-17 07:38:00,57.0,36.9,30.13,North,1,0.0,5.8,47,0.00,,,0.00,WUHU216WMR968SP,2013-04-17 14:38:00,
2013-04-17 07:43:00,57.2,37.1,30.13,NNE,14,2.7,5.8,47,0.00,,,0.00,WUHU216WMR968SP,2013-04-17 14:43:00,
2013-04-17 07:48:00,57.9,37.7,30.13,North,353,2.7,6.3,47,0.00,,,0.00,WUHU216WMR968SP,2013-04-17 14:48:00,
2013-04-17 07:53:00,58.1,37.9,30.13,North,10,2.7,6.3,47,0.00,,,0.00,WUHU216WMR968SP,2013-04-17 14:53:00,
2013-04-17 07:58:00,58.5,38.3,30.13,North,1,2.2,6.3,47,0.00,,,0.00,WUHU216WMR968SP,2013-04-17 14:58:00,
2013-04-17 08:03:00,58.8,38.6,30.13,North,353,2.7,5.4,47,0.00,,,0.00,WUHU216WMR968SP,2013-04-17 15:03:00,
2013-04-17 08:08:00,59.2,38.9,30.13,NNE,13,2.2,5.4,47,0.00,,,0.00,WUHU216WMR968SP,2013-04-17 15:08:00,
2013-04-17 08:13:00,59.4,39.1,30.13,NNE,26,2.7,4.9,47,0.00,,,0.00,WUHU216WMR968SP,2013-04-17 15:13:00,
2013-04-17 08:18:00,59.7,39.4,30.13,North,0,2.2,4.9,47,0.00,,,0.00,WUHU216WMR968SP,2013-04-17 15:18:00,
2013-04-17 08:23:00,59.7,39.4,30.13,North,357,2.7,4.9,47,0.00,,,0.00,WUHU216WMR968SP,2013-04-17 15:23:00,
2013-04-17 08:28:00,59.9,39.6,30.13,North,0,2.2,5.8,47,0.00,,,0.00,WUHU216WMR968SP,2013-04-17 15:28:00,
2013-04-17 08:33:00,59.5,39.2,30.13,North,0,3.6,5.8,47,0.00,,,0.00,WUHU216WMR968SP,2013-04-17 15:33:00,
2013-04-17 08:38:00,59.5,39.2,30.13,North,1,2.7,5.4,47,0.00,,,0.00,WUHU216WMR968SP,2013-04-17 15:38:00,
2013-04-17 08:43:00,59.5,39.2,30.13,WNW,300,2.2,4.0,47,0.00,,,0.00,WUHU216WMR968SP,2013-04-17 15:43:00,
2013-04-17 08:48:00,59.5,39.2,30.13,NNW,348,2.7,4.5,47,0.00,,,0.00,WUHU216WMR968SP,2013-04-17 15:48:00,
2013-04-17 08:53:00,59.5,39.2,30.13,NNE,32,2.2,6.7,47,0.00,,,0.00,WUHU216WMR968SP,2013-04-17 15:53:00,
2013-04-17 08:58:00,60.1,39.8,30.13,NNW,346,3.1,6.7,47,0.00,,,0.00,WUHU216WMR968SP,2013-04-17 15:58:00,
2013-04-17 09:03:00,60.6,40.2,30.13,NW,308,3.6,4.0,47,0.00,,,0.00,WUHU216WMR968SP,2013-04-17 16:03:00,
2013-04-17 09:08:00,61.0,40.0,30.10,North,353,2.2,5.4,46,0.00,,,0.00,WUHU216WMR968SP,2013-04-17 16:08:00,
2013-04-17 09:13:00,61.5,40.5,30.10,North,353,2.7,5.4,46,0.00,,,0.00,WUHU216WMR968SP,2013-04-17 16:13:00,
2013-04-17 09:18:00,61.7,40.7,30.10,North,10,3.6,5.4,46,0.00,,,0.00,WUHU216WMR968SP,2013-04-17 16:18:00,
2013-04-17 09:23:00,61.9,40.8,30.10,NNW,340,2.7,5.8,46,0.00,,,0.00,WUHU216WMR968SP,2013-04-17 16:23:00,
2013-04-17 09:28:00,62.2,41.1,30.10,North,353,3.6,5.8,46,0.00,,,0.00,WUHU216WMR968SP,2013-04-17 16:28:00,
2013-04-17 09:33:00,62.6,41.5,30.10,North,8,4.0,5.8,46,0.00,,,0.00,WUHU216WMR968SP,2013-04-17 16:33:00,
2013-04-17 09:38:00,63.0,41.8,30.10,North,350,3.1,5.8,46,0.00,,,0.00,WUHU216WMR968SP,2013-04-17 16:38:00,
2013-04-17 09:43:00,63.3,42.1,30.10,North,357,0.0,4.0,46,0.00,,,0.00,WUHU216WMR968SP,2013-04-17 16:43:00,
2013-04-17 09:48:00,63.7,42.5,30.10,NNW,340,3.1,4.0,46,0.00,,,0.00,WUHU216WMR968SP,2013-04-17 16:48:00,
2013-04-17 09:53:00,63.9,42.7,30.10,NW,315,3.1,5.8,46,0.00,,,0.00,WUHU216WMR968SP,2013-04-17 16:53:00,
2013-04-17 09:58:00,64.4,42.5,30.10,NW,318,4.0,5.8,45,0.00,,,0.00,WUHU216WMR968SP,2013-04-17 16:58:00,
2013-04-17 10:03:00,64.6,42.7,30.10,NNE,12,3.6,5.8,45,0.00,,,0.00,WUHU216WMR968SP,2013-04-17 17:03:00,
2013-04-17 10:08:00,64.8,42.9,30.10,NNE,22,3.1,5.8,45,0.00,,,0.00,WUHU216WMR968SP,2013-04-17 17:08:00,
2013-04-17 10:13:00,65.1,43.2,30.10,NNE,28,2.2,8.7,45,0.00,,,0.00,WUHU216WMR968SP,2013-04-17 17:13:00,
2013-04-17 10:18:00,65.5,43.5,30.10,NE,39,0.0,8.7,45,0.00,,,0.00,WUHU216WMR968SP,2013-04-17 17:18:00,
2013-04-17 10:23:00,65.8,43.8,30.10,NE,34,0.0,8.1,45,0.00,,,0.00,WUHU216WMR968SP,2013-04-17 17:23:00,
2013-04-17 10:28:00,66.4,44.4,30.10,NE,49,2.7,6.3,45,0.00,,,0.00,WUHU216WMR968SP,2013-04-17 17:28:00,
2013-04-17 10:33:00,66.4,44.4,30.10,NNE,29,2.7,6.3,45,0.00,,,0.00,WUHU216WMR968SP,2013-04-17 17:33:00,
2013-04-17 10:38:00,66.0,44.0,30.10,SW,236,3.6,7.6,45,0.00,,,0.00,WUHU216WMR968SP,2013-04-17 17:38:00,
2013-04-17 10:43:00,65.8,43.8,30.10,North,350,2.2,7.6,45,0.00,,,0.00,WUHU216WMR968SP,2013-04-17 17:43:00,
2013-04-17 10:48:00,66.2,44.2,30.10,NW,319,3.1,6.3,45,0.00,,,0.00,WUHU216WMR968SP,2013-04-17 17:48:00,
2013-04-17 10:53:00,66.7,44.6,30.10,NNE,23,3.1,6.3,45,0.00,,,0.00,WUHU216WMR968SP,2013-04-17 17:53:00,
2013-04-17 10:58:00,67.1,45.0,30.10,East,87,3.1,5.4,45,0.00,,,0.00,WUHU216WMR968SP,2013-04-17 17:58:00,
2013-04-17 11:04:00,67.5,45.4,30.10,WSW,255,5.4,5.8,45,0.00,,,0.00,WUHU216WMR968SP,2013-04-17 18:04:00,
2013-04-17 11:09:00,67.5,45.4,30.07,ENE,58,3.6,5.8,45,0.00,,,0.00,WUHU216WMR968SP,2013-04-17 18:09:00,
2013-04-17 11:14:00,68.2,46.0,30.07,North,4,3.1,8.7,45,0.00,,,0.00,WUHU216WMR968SP,2013-04-17 18:14:00,
2013-04-17 11:19:00,68.4,46.2,30.07,ESE,109,2.7,8.7,45,0.00,,,0.00,WUHU216WMR968SP,2013-04-17 18:19:00,
2013-04-17 11:24:00,68.7,46.5,30.07,SW,224,2.2,7.2,45,0.00,,,0.00,WUHU216WMR968SP,2013-04-17 18:24:00,
2013-04-17 11:29:00,69.1,46.8,30.07,WNW,289,4.5,6.3,45,0.00,,,0.00,WUHU216WMR968SP,2013-04-17 18:29:00,
2013-04-17 11:34:00,68.4,46.2,30.07,NE,38,3.1,7.6,45,0.00,,,0.00,WUHU216WMR968SP,2013-04-17 18:34:00,
2013-04-17 11:39:00,68.5,46.3,30.07,West,263,4.5,11.0,45,0.00,,,0.00,WUHU216WMR968SP,2013-04-17 18:39:00,
2013-04-17 11:44:00,68.4,46.2,30.07,NW,319,3.6,11.0,45,0.00,,,0.00,WUHU216WMR968SP,2013-04-17 18:44:00,
2013-04-17 11:49:00,68.2,46.0,30.07,NNW,336,2.7,6.3,45,0.00,,,0.00,WUHU216WMR968SP,2013-04-17 18:49:00,
2013-04-17 11:54:00,68.2,46.0,30.07,South,182,5.4,8.7,45,0.00,,,0.00,WUHU216WMR968SP,2013-04-17 18:54:00,
2013-04-17 11:59:00,68.7,46.5,30.07,NNE,24,3.1,8.7,45,0.00,,,0.00,WUHU216WMR968SP,2013-04-17 18:59:00,
2013-04-17 12:04:00,69.1,46.8,30.07,ESE,122,3.6,8.1,45,0.00,,,0.00,WUHU216WMR968SP,2013-04-17 19:04:00,
2013-04-17 12:09:00,70.0,47.0,30.07,North,7,3.6,8.1,44,0.00,,,0.00,WUHU216WMR968SP,2013-04-17 19:09:00,
2013-04-17 12:14:00,70.0,47.0,30.07,SE,132,4.0,8.1,44,0.00,,,0.00,WUHU216WMR968SP,2013-04-17 19:14:00,
2013-04-17 12:19:00,70.2,47.2,30.07,SSW,198,2.2,8.1,44,0.00,,,0.00,WUHU216WMR968SP,2013-04-17 19:19:00,
2013-04-17 12:24:00,70.3,47.3,30.07,NNW,329,0.0,5.8,44,0.00,,,0.00,WUHU216WMR968SP,2013-04-17 19:24:00,
2013-04-17 12:29:00,69.8,46.8,30.07,WSW,249,4.0,8.1,44,0.00,,,0.00,WUHU216WMR968SP,2013-04-17 19:29:00,
2013-04-17 12:34:00,69.4,47.1,30.07,WSW,251,4.0,8.1,45,0.00,,,0.00,WUHU216WMR968SP,2013-04-17 19:34:00,
2013-04-17 12:39:00,69.8,46.8,30.04,NNE,20,0.0,6.3,44,0.00,,,0.00,WUHU216WMR968SP,2013-04-17 19:39:00,
2013-04-17 12:44:00,70.2,47.2,30.04,SW,226,3.6,8.1,44,0.00,,,0.00,WUHU216WMR968SP,2013-04-17 19:44:00,
2013-04-17 12:49:00,70.3,47.3,30.04,WNW,295,4.0,8.1,44,0.00,,,0.00,WUHU216WMR968SP,2013-04-17 19:49:00,
2013-04-17 12:54:00,70.5,47.5,30.04,NW,319,4.5,7.6,44,0.00,,,0.00,WUHU216WMR968SP,2013-04-17 19:54:00,
2013-04-17 12:59:00,70.3,47.3,30.04,NNW,329,6.3,8.3,44,0.00,,,0.00,WUHU216WMR968SP,2013-04-17 19:59:00,
2013-04-17 13:04:00,70.2,47.2,30.04,SW,225,2.7,8.3,44,0.00,,,0.00,WUHU216WMR968SP,2013-04-17 20:04:00,
2013-04-17 13:09:00,70.7,47.7,30.04,SW,223,4.5,6.3,44,0.00,,,0.00,WUHU216WMR968SP,2013-04-17 20:09:00,
2013-04-17 13:14:00,70.9,47.8,30.04,North,357,3.1,6.3,44,0.00,,,0.00,WUHU216WMR968SP,2013-04-17 20:14:00,
2013-04-17 13:19:00,70.7,47.7,30.04,North,1,3.6,5.8,44,0.00,,,0.00,WUHU216WMR968SP,2013-04-17 20:19:00,
2013-04-17 13:24:00,71.1,48.0,30.04,SSE,152,2.7,5.8,44,0.00,,,0.00,WUHU216WMR968SP,2013-04-17 20:24:00,
2013-04-17 13:29:00,71.8,48.7,30.04,NW,311,2.7,4.9,44,0.00,,,0.00,WUHU216WMR968SP,2013-04-17 20:29:00,
2013-04-17 13:34:00,71.6,48.5,30.04,NW,326,4.9,6.3,44,0.00,,,0.00,WUHU216WMR968SP,2013-04-17 20:34:00,
2013-04-17 13:39:00,71.1,48.0,30.04,NW,322,2.2,8.1,44,0.00,,,0.00,WUHU216WMR968SP,2013-04-17 20:39:00,
2013-04-17 13:44:00,71.4,48.3,30.04,WNW,300,5.8,8.3,44,0.00,,,0.00,WUHU216WMR968SP,2013-04-17 20:44:00,
2013-04-17 13:49:00,71.1,48.0,30.04,WSW,246,5.4,8.3,44,0.00,,,0.00,WUHU216WMR968SP,2013-04-17 20:49:00,
2013-04-17 13:54:00,71.2,48.1,30.04,SW,218,3.6,8.1,44,0.00,,,0.00,WUHU216WMR968SP,2013-04-17 20:54:00,
2013-04-17 13:59:00,71.4,48.3,30.04,WSW,237,4.5,9.6,44,0.00,,,0.00,WUHU216WMR968SP,2013-04-17 20:59:00,
2013-04-17 14:04:00,71.8,48.7,30.04,West,259,7.2,9.6,44,0.00,,,0.00,WUHU216WMR968SP,2013-04-17 21:04:00,
2013-04-17 14:09:00,72.3,49.1,30.04,SSW,202,3.6,9.2,44,0.00,,,0.00,WUHU216WMR968SP,2013-04-17 21:09:00,
2013-04-17 14:14:00,73.0,49.8,30.04,SSW,207,4.5,8.1,44,0.00,,,0.00,WUHU216WMR968SP,2013-04-17 21:14:00,
2013-04-17 14:19:00,73.8,49.9,30.04,NNE,29,4.0,6.3,43,0.00,,,0.00,WUHU216WMR968SP,2013-04-17 21:19:00,
2013-04-17 14:24:00,73.8,49.9,30.04,SSE,156,2.2,5.4,43,0.00,,,0.00,WUHU216WMR968SP,2013-04-17 21:24:00,
2013-04-17 14:29:00,73.9,49.9,30.04,West,264,3.1,6.3,43,0.00,,,0.00,WUHU216WMR968SP,2013-04-17 21:29:00,
2013-04-17 14:34:00,73.8,49.9,30.04,WSW,239,6.7,8.7,43,0.00,,,0.00,WUHU216WMR968SP,2013-04-17 21:34:00,
2013-04-17 14:39:00,72.7,49.5,30.04,WSW,251,6.3,11.0,44,0.00,,,0.00,WUHU216WMR968SP,2013-04-17 21:39:00,
2013-04-17 14:44:00,71.6,48.5,30.04,SW,225,4.0,11.0,44,0.00,,,0.00,WUHU216WMR968SP,2013-04-17 21:44:00,
2013-04-17 14:49:00,72.0,48.9,30.04,West,276,6.3,13.2,44,0.00,,,0.00,WUHU216WMR968SP,2013-04-17 21:49:00,
2013-04-17 14:54:00,72.1,48.9,30.04,NW,321,7.6,15.4,44,0.00,,,0.00,WUHU216WMR968SP,2013-04-17 21:54:00,
2013-04-17 14:59:00,72.0,48.9,30.04,WSW,253,7.2,15.4,44,0.00,,,0.00,WUHU216WMR968SP,2013-04-17 21:59:00,
2013-04-17 15:04:00,71.2,48.1,30.04,West,268,6.7,11.0,44,0.00,,,0.00,WUHU216WMR968SP,2013-04-17 22:04:00,
2013-04-17 15:09:00,70.9,47.8,30.04,NNW,339,7.6,11.0,44,0.00,,,0.00,WUHU216WMR968SP,2013-04-17 22:09:00,
2013-04-17 15:14:00,70.3,47.3,30.04,WNW,284,5.8,11.0,44,0.00,,,0.00,WUHU216WMR968SP,2013-04-17 22:14:00,
2013-04-17 15:19:00,70.7,47.7,30.04,SW,227,8.1,11.0,44,0.00,,,0.00,WUHU216WMR968SP,2013-04-17 22:19:00,
2013-04-17 15:24:00,70.2,47.2,30.04,SSW,197,5.4,12.8,44,0.00,,,0.00,WUHU216WMR968SP,2013-04-17 22:24:00,
2013-04-17 15:29:00,70.3,47.3,30.04,WSW,247,9.2,12.8,44,0.00,,,0.00,WUHU216WMR968SP,2013-04-17 22:29:00,
2013-04-17 15:34:00,70.0,47.0,30.04,NW,325,9.2,12.3,44,0.00,,,0.00,WUHU216WMR968SP,2013-04-17 22:34:00,
2013-04-17 15:39:00,70.0,47.0,30.04,West,263,8.3,12.3,44,0.00,,,0.00,WUHU216WMR968SP,2013-04-17 22:39:00,
2013-04-17 15:44:00,70.0,47.0,30.04,WNW,297,7.6,11.0,44,0.00,,,0.00,WUHU216WMR968SP,2013-04-17 22:44:00,
2013-04-17 15:49:00,70.0,47.0,30.04,SW,223,10.5,14.1,44,0.00,,,0.00,WUHU216WMR968SP,2013-04-17 22:49:00,
2013-04-17 15:54:00,69.4,47.1,30.04,West,265,7.2,14.1,45,0.00,,,0.00,WUHU216WMR968SP,2013-04-17 22:54:00,
2013-04-17 15:59:00,69.4,47.1,30.04,WSW,257,9.2,13.6,45,0.00,,,0.00,WUHU216WMR968SP,2013-04-17 22:59:00,
2013-04-17 16:04:00,69.4,47.1,30.04,SW,236,5.8,13.6,45,0.00,,,0.00,WUHU216WMR968SP,2013-04-17 23:04:00,
2013-04-17 16:09:00,69.4,47.1,30.04,WSW,257,8.7,13.2,45,0.00,,,0.00,WUHU216WMR968SP,2013-04-17 23:09:00,
2013-04-17 16:14:00,69.3,47.0,30.04,NNW,343,7.2,13.2,45,0.00,,,0.00,WUHU216WMR968SP,2013-04-17 23:14:00,
2013-04-17 16:19:00,68.9,46.6,30.04,WSW,241,8.7,11.9,45,0.00,,,0.00,WUHU216WMR968SP,2013-04-17 23:19:00,
2013-04-17 16:24:00,68.7,46.5,30.04,SW,227,5.8,11.9,45,0.00,,,0.00,WUHU216WMR968SP,2013-04-17 23:24:00,
2013-04-17 16:29:00,68.2,46.0,30.04,NW,310,8.7,12.8,45,0.00,,,0.00,WUHU216WMR968SP,2013-04-17 23:29:00,
2013-04-17 16:34:00,68.2,46.0,30.04,WSW,241,10.5,13.2,45,0.00,,,0.00,WUHU216WMR968SP,2013-04-17 23:34:00,
2013-04-17 16:39:00,68.2,46.0,30.04,SW,236,6.3,13.2,45,0.00,,,0.00,WUHU216WMR968SP,2013-04-17 23:39:00,
2013-04-17 16:44:00,67.6,45.5,30.04,WSW,243,7.6,12.3,45,0.00,,,0.00,WUHU216WMR968SP,2013-04-17 23:44:00,
2013-04-17 16:49:00,67.6,45.5,30.04,NW,308,0.0,9.6,45,0.00,,,0.00,WUHU216WMR968SP,2013-04-17 23:49:00,
2013-04-17 16:54:00,67.3,45.2,30.04,WSW,241,0.0,8.7,45,0.00,,,0.00,WUHU216WMR968SP,2013-04-17 23:54:00,
2013-04-17 16:59:00,67.1,45.0,30.04,SW,228,0.0,0.0,45,0.00,,,0.00,WUHU216WMR968SP,2013-04-17 23:59:00,
2013-04-17 17:04:00,67.1,45.0,30.04,SW,216,0.0,0.0,45,0.00,,,0.00,WUHU216WMR968SP,2013-04-18 00:04:00,
2013-04-17 17:09:00,67.1,45.0,30.04,West,259,0.0,0.0,45,0.00,,,0.00,WUHU216WMR968SP,2013-04-18 00:09:00,
2013-04-17 17:14:00,67.1,45.0,30.04,SW,234,0.0,0.0,45,0.00,,,0.00,WUHU216WMR968SP,2013-04-18 00:14:00,
2013-04-17 17:19:00,67.3,45.2,30.04,WNW,296,0.0,0.0,45,0.00,,,0.00,WUHU216WMR968SP,2013-04-18 00:19:00,
2013-04-17 17:24:00,67.1,45.0,30.04,SW,232,0.0,0.0,45,0.00,,,0.00,WUHU216WMR968SP,2013-04-18 00:24:00,
2013-04-17 17:29:00,67.1,45.0,30.04,SW,236,0.0,0.0,45,0.00,,,0.00,WUHU216WMR968SP,2013-04-18 00:29:00,
2013-04-17 17:34:00,67.5,45.4,30.04,South,190,0.0,0.0,45,0.00,,,0.00,WUHU216WMR968SP,2013-04-18 00:34:00,
2013-04-17 17:39:00,67.5,45.4,30.04,WSW,245,0.0,0.0,45,0.00,,,0.00,WUHU216WMR968SP,2013-04-18 00:39:00,
2013-04-17 17:44:00,67.3,45.2,30.04,WNW,292,0.0,0.0,45,0.00,,,0.00,WUHU216WMR968SP,2013-04-18 00:44:00,
2013-04-17 17:49:00,66.9,44.8,30.04,WSW,237,0.0,0.0,45,0.00,,,0.00,WUHU216WMR968SP,2013-04-18 00:49:00,
2013-04-17 17:54:00,66.7,44.6,30.04,WNW,293,0.0,0.0,45,0.00,,,0.00,WUHU216WMR968SP,2013-04-18 00:54:00,
2013-04-17 17:59:00,66.4,44.4,30.04,WNW,296,0.0,0.0,45,0.00,,,0.00,WUHU216WMR968SP,2013-04-18 00:59:00,
2013-04-17 18:04:00,66.2,44.2,30.04,West,270,0.0,0.0,45,0.00,,,0.00,WUHU216WMR968SP,2013-04-18 01:04:00,
2013-04-17 18:09:00,66.4,44.4,30.04,WNW,295,0.0,0.0,45,0.00,,,0.00,WUHU216WMR968SP,2013-04-18 01:09:00,
2013-04-17 18:14:00,66.4,44.4,30.04,SW,228,0.0,0.0,45,0.00,,,0.00,WUHU216WMR968SP,2013-04-18 01:14:00,
2013-04-17 18:19:00,66.2,44.2,30.04,WNW,302,0.0,0.0,45,0.00,,,0.00,WUHU216WMR968SP,2013-04-18 01:19:00,
2013-04-17 18:24:00,66.0,44.0,30.04,NNW,331,0.0,0.0,45,0.00,,,0.00,WUHU216WMR968SP,2013-04-18 01:24:00,
2013-04-17 18:29:00,65.7,43.7,30.04,NW,312,0.0,0.0,45,0.00,,,0.00,WUHU216WMR968SP,2013-04-18 01:29:00,
2013-04-17 18:34:00,65.1,43.2,30.04,West,259,0.0,0.0,45,0.00,,,0.00,WUHU216WMR968SP,2013-04-18 01:34:00,
2013-04-17 18:39:00,64.8,42.9,30.04,NW,306,0.0,0.0,45,0.00,,,0.00,WUHU216WMR968SP,2013-04-18 01:39:00,
2013-04-17 18:44:00,64.6,42.7,30.04,West,261,0.0,0.0,45,0.00,,,0.00,WUHU216WMR968SP,2013-04-18 01:44:00,
2013-04-17 18:49:00,64.4,42.5,30.04,SW,220,0.0,0.0,45,0.00,,,0.00,WUHU216WMR968SP,2013-04-18 01:49:00,
2013-04-17 18:54:00,64.2,42.9,30.07,WSW,251,0.0,0.0,46,0.00,,,0.00,WUHU216WMR968SP,2013-04-18 01:54:00,
2013-04-17 18:59:00,63.9,42.7,30.07,SW,236,0.0,0.0,46,0.00,,,0.00,WUHU216WMR968SP,2013-04-18 01:59:00,
2013-04-17 19:04:00,63.7,42.5,30.07,SW,229,0.0,0.0,46,0.00,,,0.00,WUHU216WMR968SP,2013-04-18 02:04:00,
2013-04-17 19:09:00,63.5,42.3,30.07,West,274,0.0,0.0,46,0.00,,,0.00,WUHU216WMR968SP,2013-04-18 02:09:00,
2013-04-17 19:14:00,63.1,41.9,30.07,West,268,0.0,0.0,46,0.00,,,0.00,WUHU216WMR968SP,2013-04-18 02:14:00,
2013-04-17 19:19:00,62.8,41.7,30.07,SW,232,0.0,0.0,46,0.00,,,0.00,WUHU216WMR968SP,2013-04-18 02:19:00,
2013-04-17 19:24:00,62.6,41.5,30.07,SW,230,0.0,2.7,46,0.00,,,0.00,WUHU216WMR968SP,2013-04-18 02:24:00,
2013-04-17 19:29:00,62.2,41.1,30.07,SW,235,3.1,4.9,46,0.00,,,0.00,WUHU216WMR968SP,2013-04-18 02:29:00,
2013-04-17 19:34:00,62.1,41.0,30.07,West,272,4.0,7.6,46,0.00,,,0.00,WUHU216WMR968SP,2013-04-18 02:34:00,
2013-04-17 19:39:00,61.7,40.7,30.10,WNW,294,2.7,7.6,46,0.00,,,0.00,WUHU216WMR968SP,2013-04-18 02:39:00,
2013-04-17 19:44:00,61.3,40.3,30.10,WSW,252,0.0,4.5,46,0.00,,,0.00,WUHU216WMR968SP,2013-04-18 02:44:00,
2013-04-17 19:49:00,61.2,40.2,30.10,WSW,252,0.0,2.7,46,0.00,,,0.00,WUHU216WMR968SP,2013-04-18 02:49:00,
2013-04-17 19:54:00,60.8,39.8,30.13,WSW,252,0.0,0.0,46,0.00,,,0.00,WUHU216WMR968SP,2013-04-18 02:54:00,
2013-04-17 19:59:00,60.6,40.2,30.13,WSW,252,0.0,0.0,47,0.00,,,0.00,WUHU216WMR968SP,2013-04-18 02:59:00,
2013-04-17 20:04:00,60.4,40.0,30.13,WSW,252,0.0,0.0,47,0.00,,,0.00,WUHU216WMR968SP,2013-04-18 03:04:00,
2013-04-17 20:09:00,60.1,39.8,30.13,WSW,252,0.0,0.0,47,0.00,,,0.00,WUHU216WMR968SP,2013-04-18 03:09:00,
2013-04-17 20:14:00,59.5,39.2,30.13,North,349,0.0,0.0,47,0.00,,,0.00,WUHU216WMR968SP,2013-04-18 03:14:00,
2013-04-17 20:19:00,59.2,38.9,30.13,North,349,0.0,0.0,47,0.00,,,0.00,WUHU216WMR968SP,2013-04-18 03:19:00,
2013-04-17 20:24:00,59.0,38.7,30.10,North,349,0.0,0.0,47,0.00,,,0.00,WUHU216WMR968SP,2013-04-18 03:24:00,
2013-04-17 20:29:00,58.8,38.6,30.10,North,3,0.0,0.0,47,0.00,,,0.00,WUHU216WMR968SP,2013-04-18 03:29:00,
2013-04-17 20:34:00,58.6,38.4,30.10,North,3,0.0,0.0,47,0.00,,,0.00,WUHU216WMR968SP,2013-04-18 03:34:00,
2013-04-17 20:39:00,58.6,38.4,30.10,North,3,0.0,0.0,47,0.00,,,0.00,WUHU216WMR968SP,2013-04-18 03:39:00,
2013-04-17 20:44:00,58.3,38.1,30.10,North,3,0.0,0.0,47,0.00,,,0.00,WUHU216WMR968SP,2013-04-18 03:44:00,
2013-04-17 20:49:00,58.1,37.9,30.10,North,3,0.0,0.0,47,0.00,,,0.00,WUHU216WMR968SP,2013-04-18 03:49:00,
2013-04-17 20:54:00,57.9,37.7,30.13,North,3,0.0,0.0,47,0.00,,,0.00,WUHU216WMR968SP,2013-04-18 03:54:00,
2013-04-17 20:59:00,57.7,37.6,30.13,North,3,0.0,0.0,47,0.00,,,0.00,WUHU216WMR968SP,2013-04-18 03:59:00,
2013-04-17 21:04:00,57.6,37.5,30.13,North,7,0.0,0.0,47,0.00,,,0.00,WUHU216WMR968SP,2013-04-18 04:04:00,
2013-04-17 21:09:00,57.4,37.3,30.10,NE,44,0.0,0.0,47,0.00,,,0.00,WUHU216WMR968SP,2013-04-18 04:09:00,
2013-04-17 21:14:00,57.2,37.1,30.10,NE,44,0.0,0.0,47,0.00,,,0.00,WUHU216WMR968SP,2013-04-18 04:14:00,
2013-04-17 21:19:00,57.2,37.1,30.10,NE,44,0.0,0.0,47,0.00,,,0.00,WUHU216WMR968SP,2013-04-18 04:19:00,
2013-04-17 21:24:00,57.0,36.9,30.13,NE,44,0.0,0.0,47,0.00,,,0.00,WUHU216WMR968SP,2013-04-18 04:24:00,
2013-04-17 21:29:00,56.8,36.7,30.13,NE,44,0.0,0.0,47,0.00,,,0.00,WUHU216WMR968SP,2013-04-18 04:29:00,
2013-04-17 21:34:00,56.8,36.7,30.13,NE,44,0.0,0.0,47,0.00,,,0.00,WUHU216WMR968SP,2013-04-18 04:34:00,
2013-04-17 21:39:00,56.8,36.7,30.13,NE,44,0.0,0.0,47,0.00,,,0.00,WUHU216WMR968SP,2013-04-18 04:39:00,
2013-04-17 21:44:00,56.8,36.7,30.13,NE,44,0.0,0.0,47,0.00,,,0.00,WUHU216WMR968SP,2013-04-18 04:44:00,
2013-04-17 21:49:00,56.7,36.6,30.13,NE,44,0.0,0.0,47,0.00,,,0.00,WUHU216WMR968SP,2013-04-18 04:49:00,
2013-04-17 21:54:00,56.5,36.5,30.13,NE,44,0.0,0.0,47,0.00,,,0.00,WUHU216WMR968SP,2013-04-18 04:54:00,
2013-04-17 21:59:00,56.3,36.3,30.13,NE,44,0.0,0.0,47,0.00,,,0.00,WUHU216WMR968SP,2013-04-18 04:59:00,
2013-04-17 22:04:00,55.9,35.9,30.13,NE,44,0.0,0.0,47,0.00,,,0.00,WUHU216WMR968SP,2013-04-18 05:04:00,
2013-04-17 22:09:00,55.9,35.9,30.13,NE,44,0.0,0.0,47,0.00,,,0.00,WUHU216WMR968SP,2013-04-18 05:09:00,
2013-04-17 22:14:00,55.9,35.9,30.13,NE,44,0.0,0.0,47,0.00,,,0.00,WUHU216WMR968SP,2013-04-18 05:14:00,
2013-04-17 22:19:00,55.8,35.8,30.13,NE,37,3.1,3.6,47,0.00,,,0.00,WUHU216WMR968SP,2013-04-18 05:19:00,
2013-04-17 22:24:00,55.6,35.6,30.13,NW,314,0.0,3.6,47,0.00,,,0.00,WUHU216WMR968SP,2013-04-18 05:24:00,
2013-04-17 22:29:00,54.9,35.5,30.13,NNW,327,0.0,3.6,48,0.00,,,0.00,WUHU216WMR968SP,2013-04-18 05:29:00,
2013-04-17 22:34:00,54.5,35.2,30.13,NNW,343,0.0,3.1,48,0.00,,,0.00,WUHU216WMR968SP,2013-04-18 05:34:00,
2013-04-17 22:39:00,54.5,35.2,30.13,NNW,343,0.0,0.0,48,0.00,,,0.00,WUHU216WMR968SP,2013-04-18 05:39:00,
2013-04-17 22:44:00,54.7,35.3,30.13,NNW,343,0.0,0.0,48,0.00,,,0.00,WUHU216WMR968SP,2013-04-18 05:44:00,
2013-04-17 22:49:00,54.7,35.3,30.13,NE,45,0.0,0.0,48,0.00,,,0.00,WUHU216WMR968SP,2013-04-18 05:49:00,
2013-04-17 22:54:00,54.7,35.3,30.13,East,86,0.0,3.1,48,0.00,,,0.00,WUHU216WMR968SP,2013-04-18 05:54:00,
2013-04-17 22:59:00,54.7,35.3,30.13,NE,48,0.0,3.1,48,0.00,,,0.00,WUHU216WMR968SP,2013-04-18 05:59:00,
2013-04-17 23:04:00,54.7,35.3,30.13,NE,35,0.0,3.6,48,0.00,,,0.00,WUHU216WMR968SP,2013-04-18 06:04:00,
2013-04-17 23:09:00,54.5,35.2,30.16,NE,35,0.0,3.6,48,0.00,,,0.00,WUHU216WMR968SP,2013-04-18 06:09:00,
2013-04-17 23:14:00,54.5,35.2,30.16,NE,35,0.0,0.0,48,0.00,,,0.00,WUHU216WMR968SP,2013-04-18 06:14:00,
2013-04-17 23:19:00,54.0,34.7,30.16,NE,35,0.0,0.0,48,0.00,,,0.00,WUHU216WMR968SP,2013-04-18 06:19:00,
2013-04-17 23:24:00,53.8,34.5,30.16,ESE,115,0.0,2.2,48,0.00,,,0.00,WUHU216WMR968SP,2013-04-18 06:24:00,
2013-04-17 23:29:00,53.6,34.3,30.16,East,95,0.0,2.2,48,0.00,,,0.00,WUHU216WMR968SP,2013-04-18 06:29:00,
2013-04-17 23:34:00,53.2,34.0,30.16,East,93,0.0,0.0,48,0.00,,,0.00,WUHU216WMR968SP,2013-04-18 06:34:00,
2013-04-17 23:39:00,53.2,34.0,30.16,East,91,0.0,0.0,48,0.00,,,0.00,WUHU216WMR968SP,2013-04-18 06:39:00,
2013-04-17 23:44:00,53.4,34.1,30.16,East,91,0.0,0.0,48,0.00,,,0.00,WUHU216WMR968SP,2013-04-18 06:44:00,
2013-04-17 23:49:00,53.8,34.5,30.16,NNE,22,0.0,4.0,48,0.00,,,0.00,WUHU216WMR968SP,2013-04-18 06:49:00,
2013-04-17 23:54:00,54.7,35.3,30.16,NNE,22,0.0,4.0,48,0.00,,,0.00,WUHU216WMR968SP,2013-04-18 06:54:00,
2013-04-17 23:59:00,55.2,35.8,30.16,NNE,22,0.0,3.1,48,0.00,,,0.00,WUHU216WMR968SP,2013-04-18 06:59:00,